LNYLP ENZV-ENHD
Flight info
| Callsign | LNYLP |
|---|---|
| Flight time | 0h 21m |
| Altitude | |
| Route | |
| Aircraft | C172 |
Departure
| Time | 2026-04-25 20:16 |
|---|---|
| Airport | Stavanger Airport, Sola (ENZV) |
Arrival
| Time | 2026-04-25 20:37 |
|---|---|
| Airport | Haugesund Airport, Karmøy (ENHD) |
| Time | Latitude | Longitude | Altitude | Speed | Heading |
|---|---|---|---|---|---|
| 2026-04-25 19:57 | 58.89305 | 5.63273 | 19 ft | 0 kts | 257° |
| 2026-04-25 20:05 | 58.89305 | 5.63272 | 19 ft | 0 kts | 254° |
| 2026-04-25 20:05 | 58.89296 | 5.63267 | 19 ft | 5 kts | 145° |
| 2026-04-25 20:06 | 58.89247 | 5.63342 | 18 ft | 11 kts | 160° |
| 2026-04-25 20:06 | 58.89162 | 5.63377 | 19 ft | 15 kts | 178° |
| 2026-04-25 20:06 | 58.89062 | 5.63377 | 20 ft | 13 kts | 179° |
| 2026-04-25 20:06 | 58.88988 | 5.63409 | 22 ft | 9 kts | 174° |
| 2026-04-25 20:07 | 58.88929 | 5.63411 | 24 ft | 11 kts | 178° |
| 2026-04-25 20:07 | 58.88817 | 5.63416 | 26 ft | 20 kts | 179° |
| 2026-04-25 20:07 | 58.88685 | 5.63422 | 27 ft | 18 kts | 180° |
| 2026-04-25 20:07 | 58.88569 | 5.63422 | 26 ft | 16 kts | 179° |
| 2026-04-25 20:08 | 58.88498 | 5.63427 | 26 ft | 15 kts | 182° |
| 2026-04-25 20:08 | 58.88401 | 5.63426 | 26 ft | 15 kts | 180° |
| 2026-04-25 20:08 | 58.88280 | 5.63430 | 26 ft | 19 kts | 179° |
| 2026-04-25 20:08 | 58.88150 | 5.63434 | 25 ft | 18 kts | 179° |
| 2026-04-25 20:09 | 58.88030 | 5.63435 | 25 ft | 16 kts | 190° |
| 2026-04-25 20:09 | 58.87940 | 5.63366 | 26 ft | 13 kts | 202° |
| 2026-04-25 20:09 | 58.87865 | 5.63303 | 26 ft | 9 kts | 202° |
| 2026-04-25 20:09 | 58.87801 | 5.63292 | 26 ft | 12 kts | 176° |
| 2026-04-25 20:10 | 58.87756 | 5.63327 | 26 ft | 10 kts | 127° |
| 2026-04-25 20:10 | 58.87732 | 5.63442 | 27 ft | 7 kts | 110° |
| 2026-04-25 20:10 | 58.87720 | 5.63520 | 27 ft | 2 kts | 103° |
| 2026-04-25 20:10 | 58.87717 | 5.63537 | 27 ft | 4 kts | 103° |
| 2026-04-25 20:11 | 58.87707 | 5.63600 | 28 ft | 0 kts | 109° |
| 2026-04-25 20:14 | 58.87692 | 5.63718 | 28 ft | 21 kts | 91° |
| 2026-04-25 20:14 | 58.87689 | 5.63826 | 28 ft | 10 kts | 243° |
| 2026-04-25 20:14 | 58.87733 | 5.63783 | 28 ft | 12 kts | 357° |
| 2026-04-25 20:15 | 58.87975 | 5.63773 | 27 ft | 56 kts | 359° |
| 2026-04-25 20:15 | 58.88410 | 5.63804 | 183 ft | 64 kts | 358° |
| 2026-04-25 20:15 | 58.88868 | 5.63818 | 350 ft | 69 kts | 353° |
| 2026-04-25 20:15 | 58.89350 | 5.63838 | 546 ft | 70 kts | 354° |
| 2026-04-25 20:16 | 58.89838 | 5.63610 | 668 ft | 77 kts | 342° |
| 2026-04-25 20:16 | 58.90383 | 5.63276 | 802 ft | 80 kts | 339° |
| 2026-04-25 20:16 | 58.90901 | 5.62866 | 973 ft | 82 kts | 339° |
| 2026-04-25 20:16 | 58.91393 | 5.62329 | 1190 ft | 82 kts | 329° |
| 2026-04-25 20:17 | 58.91855 | 5.61695 | 1372 ft | 81 kts | 327° |
| 2026-04-25 20:17 | 58.92317 | 5.61068 | 1542 ft | 83 kts | 333° |
| 2026-04-25 20:17 | 58.92829 | 5.60570 | 1739 ft | 78 kts | 342° |
| 2026-04-25 20:17 | 58.93335 | 5.60247 | 1918 ft | 78 kts | 346° |
| 2026-04-25 20:18 | 58.93868 | 5.59997 | 2079 ft | 78 kts | 349° |
| 2026-04-25 20:18 | 58.94401 | 5.59803 | 2240 ft | 80 kts | 348° |
| 2026-04-25 20:18 | 58.94936 | 5.59479 | 2406 ft | 80 kts | 348° |
| 2026-04-25 20:18 | 58.95481 | 5.59210 | 2533 ft | 85 kts | 347° |
| 2026-04-25 20:19 | 58.96090 | 5.58874 | 2584 ft | 93 kts | 345° |
| 2026-04-25 20:19 | 58.96668 | 5.58411 | 2727 ft | 89 kts | 341° |
| 2026-04-25 20:19 | 58.97239 | 5.57925 | 2776 ft | 93 kts | 339° |
| 2026-04-25 20:19 | 58.97898 | 5.57468 | 2721 ft | 96 kts | 346° |
| 2026-04-25 20:20 | 58.98553 | 5.57067 | 2671 ft | 102 kts | 345° |
| 2026-04-25 20:20 | 58.99256 | 5.56616 | 2455 ft | 113 kts | 346° |
| 2026-04-25 20:20 | 59.00001 | 5.56201 | 2415 ft | 106 kts | 348° |
| 2026-04-25 20:20 | 59.00696 | 5.55826 | 2328 ft | 103 kts | 347° |
| 2026-04-25 20:21 | 59.01359 | 5.55451 | 2337 ft | 94 kts | 347° |
| 2026-04-25 20:21 | 59.01977 | 5.55100 | 2351 ft | 91 kts | 347° |
| 2026-04-25 20:21 | 59.02571 | 5.54728 | 2362 ft | 90 kts | 344° |
| 2026-04-25 20:21 | 59.03142 | 5.54205 | 2359 ft | 92 kts | 336° |
| 2026-04-25 20:22 | 59.03678 | 5.53523 | 2382 ft | 92 kts | 332° |
| 2026-04-25 20:22 | 59.04018 | 5.53023 | 2401 ft | 93 kts | 330° |
| 2026-04-25 20:22 | 59.04702 | 5.51981 | 2434 ft | 94 kts | 328° |
| 2026-04-25 20:22 | 59.05119 | 5.50960 | 2443 ft | 103 kts | 304° |
| 2026-04-25 20:23 | 59.05415 | 5.49700 | 2451 ft | 99 kts | 313° |
| 2026-04-25 20:23 | 59.05774 | 5.48597 | 2515 ft | 97 kts | 313° |
| 2026-04-25 20:23 | 59.06228 | 5.47628 | 2487 ft | 95 kts | 327° |
| 2026-04-25 20:23 | 59.06735 | 5.46862 | 2539 ft | 92 kts | 333° |
| 2026-04-25 20:24 | 59.07285 | 5.46191 | 2536 ft | 93 kts | 335° |
| 2026-04-25 20:24 | 59.07830 | 5.45543 | 2575 ft | 92 kts | 335° |
| 2026-04-25 20:24 | 59.08371 | 5.44844 | 2576 ft | 94 kts | 332° |
| 2026-04-25 20:24 | 59.08916 | 5.44069 | 2527 ft | 98 kts | 332° |
| 2026-04-25 20:25 | 59.09486 | 5.43385 | 2547 ft | 95 kts | 334° |
| 2026-04-25 20:25 | 59.10041 | 5.42661 | 2536 ft | 97 kts | 332° |
| 2026-04-25 20:25 | 59.10602 | 5.41931 | 2538 ft | 96 kts | 334° |
| 2026-04-25 20:25 | 59.11156 | 5.41204 | 2550 ft | 96 kts | 332° |
| 2026-04-25 20:26 | 59.11683 | 5.40378 | 2551 ft | 99 kts | 324° |
| 2026-04-25 20:26 | 59.12229 | 5.39595 | 2544 ft | 97 kts | 334° |
| 2026-04-25 20:26 | 59.12788 | 5.38885 | 2561 ft | 96 kts | 334° |
| 2026-04-25 20:26 | 59.13369 | 5.38288 | 2546 ft | 95 kts | 342° |
| 2026-04-25 20:27 | 59.13993 | 5.37843 | 2564 ft | 93 kts | 344° |
| 2026-04-25 20:27 | 59.14607 | 5.37478 | 2561 ft | 93 kts | 349° |
| 2026-04-25 20:27 | 59.15239 | 5.37219 | 2546 ft | 93 kts | 350° |
| 2026-04-25 20:27 | 59.15873 | 5.36982 | 2526 ft | 93 kts | 351° |
| 2026-04-25 20:28 | 59.16525 | 5.36730 | 2426 ft | 98 kts | 349° |
| 2026-04-25 20:28 | 59.17182 | 5.36424 | 2412 ft | 95 kts | 349° |
| 2026-04-25 20:28 | 59.17833 | 5.36171 | 2360 ft | 96 kts | 349° |
| 2026-04-25 20:28 | 59.18449 | 5.35658 | 2313 ft | 99 kts | 328° |
| 2026-04-25 20:29 | 59.19003 | 5.34869 | 2260 ft | 97 kts | 338° |
| 2026-04-25 20:29 | 59.19622 | 5.34388 | 2247 ft | 94 kts | 345° |
| 2026-04-25 20:29 | 59.20258 | 5.34096 | 2204 ft | 94 kts | 352° |
| 2026-04-25 20:29 | 59.20907 | 5.34015 | 2176 ft | 94 kts | 2° |
| 2026-04-25 20:30 | 59.21569 | 5.34090 | 2132 ft | 95 kts | 1° |
| 2026-04-25 20:30 | 59.22220 | 5.34252 | 2137 ft | 94 kts | 7° |
| 2026-04-25 20:30 | 59.22872 | 5.34435 | 2102 ft | 94 kts | 3° |
| 2026-04-25 20:30 | 59.23515 | 5.34539 | 2034 ft | 91 kts | 360° |
| 2026-04-25 20:31 | 59.24172 | 5.34544 | 1767 ft | 96 kts | 359° |
| 2026-04-25 20:31 | 59.24806 | 5.34557 | 1710 ft | 87 kts | 356° |
| 2026-04-25 20:31 | 59.25409 | 5.34462 | 1592 ft | 89 kts | 354° |
| 2026-04-25 20:31 | 59.26011 | 5.34352 | 1538 ft | 85 kts | 351° |
| 2026-04-25 20:32 | 59.26567 | 5.34139 | 1509 ft | 78 kts | 345° |
| 2026-04-25 20:32 | 59.27070 | 5.33809 | 1448 ft | 76 kts | 342° |
| 2026-04-25 20:32 | 59.27571 | 5.33410 | 1317 ft | 81 kts | 339° |
| 2026-04-25 20:32 | 59.28075 | 5.32865 | 1204 ft | 82 kts | 330° |
| 2026-04-25 20:33 | 59.28519 | 5.32221 | 1168 ft | 78 kts | 327° |
| 2026-04-25 20:33 | 59.28948 | 5.31530 | 1065 ft | 80 kts | 326° |
| 2026-04-25 20:33 | 59.29394 | 5.30881 | 991 ft | 80 kts | 327° |
| 2026-04-25 20:33 | 59.29677 | 5.30393 | 958 ft | 81 kts | 319° |
| 2026-04-25 20:34 | 59.30189 | 5.29421 | 960 ft | 76 kts | 330° |
| 2026-04-25 20:34 | 59.30578 | 5.28707 | 909 ft | 81 kts | 317° |
| 2026-04-25 20:34 | 59.30952 | 5.27928 | 815 ft | 76 kts | 324° |
| 2026-04-25 20:34 | 59.31334 | 5.27225 | 683 ft | 76 kts | 318° |
| 2026-04-25 20:35 | 59.31678 | 5.26536 | 631 ft | 69 kts | 328° |
| 2026-04-25 20:35 | 59.32015 | 5.25865 | 549 ft | 66 kts | 325° |
| 2026-04-25 20:35 | 59.32325 | 5.25249 | 522 ft | 61 kts | 326° |
| 2026-04-25 20:35 | 59.32617 | 5.24635 | 437 ft | 61 kts | 328° |
| 2026-04-25 20:36 | 59.32916 | 5.24033 | 343 ft | 63 kts | 324° |
| 2026-04-25 20:36 | 59.33223 | 5.23460 | 258 ft | 58 kts | 325° |
| 2026-04-25 20:36 | 59.33495 | 5.22901 | 191 ft | 55 kts | 326° |
| 2026-04-25 20:36 | 59.33756 | 5.22377 | 115 ft | 51 kts | 328° |
| 2026-04-25 20:37 | 59.33979 | 5.21938 | 84 ft | 38 kts | 316° |
| 2026-04-25 20:37 | 59.34180 | 5.21514 | 113 ft | 53 kts | 322° |
| 2026-04-25 20:37 | 59.34476 | 5.20944 | 232 ft | 64 kts | 325° |
| 2026-04-25 20:37 | 59.34794 | 5.20337 | 464 ft | 64 kts | 321° |
| 2026-04-25 20:38 | 59.35068 | 5.19670 | 667 ft | 73 kts | 310° |
| 2026-04-25 20:38 | 59.34861 | 5.18622 | 801 ft | 113 kts | 223° |
| 2026-04-25 20:38 | 59.34089 | 5.18750 | 923 ft | 118 kts | 135° |
| 2026-04-25 20:38 | 59.33545 | 5.19810 | 906 ft | 105 kts | 128° |
| 2026-04-25 20:39 | 59.33035 | 5.20812 | 821 ft | 103 kts | 130° |
| 2026-04-25 20:39 | 59.32527 | 5.21757 | 793 ft | 96 kts | 127° |
| 2026-04-25 20:39 | 59.32443 | 5.22759 | 721 ft | 67 kts | 42° |
| 2026-04-25 20:39 | 59.32537 | 5.23011 | 665 ft | 69 kts | 36° |
| 2026-04-25 20:40 | 59.33199 | 5.23241 | 409 ft | 60 kts | 331° |
| 2026-04-25 20:40 | 59.33529 | 5.22766 | 243 ft | 58 kts | 332° |
| 2026-04-25 20:40 | 59.33816 | 5.22253 | 97 ft | 49 kts | 328° |
| 2026-04-25 20:40 | 59.34028 | 5.21829 | 86 ft | 52 kts | 321° |
| 2026-04-25 20:41 | 59.34315 | 5.21246 | 208 ft | 63 kts | 324° |
| 2026-04-25 20:41 | 59.34614 | 5.20692 | 481 ft | 56 kts | 327° |
| 2026-04-25 20:41 | 59.34894 | 5.20110 | 641 ft | 68 kts | 320° |
| 2026-04-25 20:41 | 59.34829 | 5.19140 | 882 ft | 98 kts | 231° |
| 2026-04-25 20:42 | 59.34091 | 5.18956 | 988 ft | 122 kts | 162° |
| 2026-04-25 20:42 | 59.33497 | 5.19957 | 964 ft | 113 kts | 123° |
| 2026-04-25 20:42 | 59.32993 | 5.21135 | 834 ft | 110 kts | 126° |
| 2026-04-25 20:42 | 59.32462 | 5.22204 | 746 ft | 109 kts | 131° |
| 2026-04-25 20:43 | 59.32229 | 5.23253 | 705 ft | 65 kts | 47° |
| 2026-04-25 20:43 | 59.32554 | 5.23616 | 531 ft | 54 kts | 355° |
| 2026-04-25 20:43 | 59.32923 | 5.23457 | 395 ft | 55 kts | 338° |
| 2026-04-25 20:43 | 59.33246 | 5.23136 | 301 ft | 49 kts | 331° |
| 2026-04-25 20:44 | 59.33531 | 5.22753 | 182 ft | 50 kts | 329° |
| 2026-04-25 20:44 | 59.33776 | 5.22328 | 99 ft | 41 kts | 321° |
| 2026-04-25 20:44 | 59.33948 | 5.21998 | 85 ft | 40 kts | 315° |
| 2026-04-25 20:44 | 59.34207 | 5.21483 | 176 ft | 59 kts | 323° |
| 2026-04-25 20:45 | 59.34497 | 5.20949 | 400 ft | 58 kts | 324° |
| 2026-04-25 20:45 | 59.34800 | 5.20353 | 567 ft | 70 kts | 322° |
| 2026-04-25 20:45 | 59.34988 | 5.19495 | 871 ft | 81 kts | 264° |
| 2026-04-25 20:45 | 59.34394 | 5.18982 | 1044 ft | 112 kts | 189° |
| 2026-04-25 20:46 | 59.33578 | 5.18944 | 1173 ft | 119 kts | 185° |
| 2026-04-25 20:46 | 59.32750 | 5.18881 | 1408 ft | 118 kts | 185° |
| 2026-04-25 20:46 | 59.31922 | 5.18798 | 1577 ft | 120 kts | 190° |
| 2026-04-25 20:46 | 59.31102 | 5.18716 | 1853 ft | 111 kts | 187° |
| 2026-04-25 20:47 | 59.30315 | 5.18666 | 2028 ft | 116 kts | 185° |
| 2026-04-25 20:47 | 59.29505 | 5.18466 | 2162 ft | 121 kts | 196° |
| 2026-04-25 20:47 | 59.28662 | 5.18240 | 2361 ft | 121 kts | 191° |
| 2026-04-25 20:47 | 59.27840 | 5.18110 | 2604 ft | 117 kts | 189° |
| 2026-04-25 20:48 | 59.27036 | 5.17976 | 2819 ft | 115 kts | 188° |
| 2026-04-25 20:48 | 59.26270 | 5.17784 | 3096 ft | 104 kts | 194° |
| 2026-04-25 20:48 | 59.25502 | 5.17965 | 3155 ft | 119 kts | 155° |
| 2026-04-25 20:48 | 59.24767 | 5.18639 | 3316 ft | 121 kts | 152° |
| 2026-04-25 20:49 | 59.23955 | 5.19224 | 3415 ft | 126 kts | 148° |
| 2026-04-25 20:49 | 59.23207 | 5.20040 | 3593 ft | 119 kts | 147° |
| 2026-04-25 20:49 | 59.22513 | 5.20829 | 3840 ft | 109 kts | 146° |
| 2026-04-25 20:49 | 59.21838 | 5.21569 | 4011 ft | 109 kts | 146° |
| 2026-04-25 20:50 | 59.21146 | 5.22288 | 4173 ft | 110 kts | 147° |
| 2026-04-25 20:50 | 59.20425 | 5.23021 | 4210 ft | 126 kts | 149° |
| 2026-04-25 20:50 | 59.19658 | 5.23833 | 4384 ft | 120 kts | 145° |
| 2026-04-25 20:50 | 59.18947 | 5.24700 | 4490 ft | 124 kts | 140° |
| 2026-04-25 20:51 | 59.18271 | 5.25716 | 4662 ft | 119 kts | 133° |
| 2026-04-25 20:51 | 59.17790 | 5.26978 | 4725 ft | 116 kts | 98° |
| 2026-04-25 20:51 | 59.17416 | 5.28403 | 4805 ft | 127 kts | 133° |
| 2026-04-25 20:51 | 59.16657 | 5.29232 | 4941 ft | 129 kts | 156° |